FIN5LA EFHK-ESSA
Flight info
| Callsign | FIN5LA |
|---|---|
| Flight time | N/A |
| Altitude | 36000 |
| Route | ADIVO Y365 POGOK DCT RUNGA N872 XILAN |
| Aircraft | A20N/M-SDE2E3FGHIRWXY/LB1 |
Departure
| Time | 2026-05-05 17:22 |
|---|---|
| Airport | Helsinki Vantaa Airport (EFHK) |
Arrival
| Time | N/A |
|---|---|
| Airport | Stockholm-Arlanda Airport (ESSA) |
| Time | Latitude | Longitude | Altitude | Speed | Heading |
|---|---|---|---|---|---|
| 2026-05-05 16:59 | 60.31909 | 24.96615 | 161 ft | 0 kts | 136° |
| 2026-05-05 17:13 | 60.31912 | 24.96611 | 161 ft | 1 kts | 136° |
| 2026-05-05 17:14 | 60.31917 | 24.96600 | 161 ft | 1 kts | 136° |
| 2026-05-05 17:14 | 60.31923 | 24.96590 | 161 ft | 1 kts | 136° |
| 2026-05-05 17:14 | 60.31928 | 24.96579 | 161 ft | 1 kts | 139° |
| 2026-05-05 17:14 | 60.31934 | 24.96569 | 161 ft | 1 kts | 153° |
| 2026-05-05 17:15 | 60.31941 | 24.96563 | 161 ft | 1 kts | 167° |
| 2026-05-05 17:15 | 60.31948 | 24.96560 | 161 ft | 1 kts | 181° |
| 2026-05-05 17:15 | 60.31956 | 24.96561 | 161 ft | 1 kts | 196° |
| 2026-05-05 17:15 | 60.31963 | 24.96566 | 161 ft | 1 kts | 210° |
| 2026-05-05 17:16 | 60.31969 | 24.96573 | 161 ft | 0 kts | 223° |
| 2026-05-05 17:16 | 60.31956 | 24.96538 | 161 ft | 9 kts | 232° |
| 2026-05-05 17:17 | 60.31902 | 24.96415 | 161 ft | 14 kts | 227° |
| 2026-05-05 17:17 | 60.31854 | 24.96237 | 161 ft | 15 kts | 264° |
| 2026-05-05 17:17 | 60.31900 | 24.96100 | 161 ft | 11 kts | 315° |
| 2026-05-05 17:17 | 60.31964 | 24.95965 | 161 ft | 15 kts | 313° |
| 2026-05-05 17:18 | 60.32039 | 24.95823 | 163 ft | 15 kts | 316° |
| 2026-05-05 17:18 | 60.32121 | 24.95663 | 161 ft | 18 kts | 316° |
| 2026-05-05 17:18 | 60.32219 | 24.95484 | 161 ft | 20 kts | 318° |
| 2026-05-05 17:18 | 60.32328 | 24.95298 | 161 ft | 21 kts | 325° |
| 2026-05-05 17:19 | 60.32469 | 24.95188 | 161 ft | 22 kts | 342° |
| 2026-05-05 17:19 | 60.32618 | 24.95088 | 161 ft | 24 kts | 340° |
| 2026-05-05 17:19 | 60.32744 | 24.95006 | 161 ft | 16 kts | 341° |
| 2026-05-05 17:19 | 60.32828 | 24.94950 | 161 ft | 14 kts | 341° |
| 2026-05-05 17:20 | 60.32923 | 24.94864 | 161 ft | 16 kts | 322° |
| 2026-05-05 17:20 | 60.33008 | 24.94703 | 161 ft | 18 kts | 315° |
| 2026-05-05 17:20 | 60.33097 | 24.94534 | 167 ft | 14 kts | 316° |
| 2026-05-05 17:20 | 60.33116 | 24.94394 | 172 ft | 10 kts | 259° |
| 2026-05-05 17:21 | 60.33092 | 24.94336 | 174 ft | 0 kts | 223° |
| 2026-05-05 17:21 | 60.33091 | 24.94334 | 174 ft | 0 kts | 223° |
| 2026-05-05 17:21 | 60.33088 | 24.94328 | 174 ft | 1 kts | 223° |
| 2026-05-05 17:22 | 60.32699 | 24.93472 | 171 ft | 104 kts | 226° |
| 2026-05-05 17:22 | 60.32103 | 24.92130 | 164 ft | 150 kts | 228° |
| 2026-05-05 17:22 | 60.31340 | 24.90506 | 537 ft | 164 kts | 230° |
| 2026-05-05 17:22 | 60.30553 | 24.88787 | 1170 ft | 170 kts | 232° |
| 2026-05-05 17:23 | 60.30005 | 24.86802 | 1972 ft | 157 kts | 263° |
| 2026-05-05 17:23 | 60.30099 | 24.84575 | 2455 ft | 169 kts | 285° |
| 2026-05-05 17:23 | 60.30559 | 24.82245 | 2853 ft | 189 kts | 294° |
| 2026-05-05 17:23 | 60.31175 | 24.79743 | 3257 ft | 214 kts | 295° |
| 2026-05-05 17:24 | 60.31672 | 24.76749 | 3883 ft | 236 kts | 280° |
| 2026-05-05 17:24 | 60.31739 | 24.73397 | 4910 ft | 242 kts | 268° |
| 2026-05-05 17:24 | 60.31657 | 24.69966 | 5993 ft | 247 kts | 268° |
| 2026-05-05 17:24 | 60.31575 | 24.66470 | 7081 ft | 251 kts | 268° |
| 2026-05-05 17:25 | 60.31491 | 24.62936 | 8161 ft | 254 kts | 268° |
| 2026-05-05 17:25 | 60.31435 | 24.60572 | 8895 ft | 256 kts | 268° |
| 2026-05-05 17:25 | 60.31197 | 24.55769 | 10304 ft | 261 kts | 260° |
| 2026-05-05 17:25 | 60.30819 | 24.52066 | 10905 ft | 279 kts | 257° |
| 2026-05-05 17:26 | 60.30385 | 24.48176 | 11458 ft | 295 kts | 257° |
| 2026-05-05 17:26 | 60.29949 | 24.44135 | 12550 ft | 293 kts | 257° |
| 2026-05-05 17:26 | 60.29542 | 24.40157 | 13782 ft | 288 kts | 257° |
| 2026-05-05 17:26 | 60.29147 | 24.36181 | 14657 ft | 291 kts | 257° |
| 2026-05-05 17:27 | 60.28752 | 24.32155 | 15471 ft | 294 kts | 257° |
| 2026-05-05 17:27 | 60.28356 | 24.28097 | 16340 ft | 297 kts | 257° |
| 2026-05-05 17:27 | 60.27955 | 24.23997 | 17175 ft | 300 kts | 257° |
| 2026-05-05 17:27 | 60.27548 | 24.19855 | 17991 ft | 303 kts | 257° |
| 2026-05-05 17:28 | 60.27133 | 24.15669 | 18718 ft | 306 kts | 257° |
| 2026-05-05 17:28 | 60.26719 | 24.11511 | 19403 ft | 309 kts | 257° |
| 2026-05-05 17:28 | 60.26295 | 24.07281 | 20294 ft | 307 kts | 257° |
| 2026-05-05 17:28 | 60.25869 | 24.03036 | 20977 ft | 311 kts | 257° |
| 2026-05-05 17:29 | 60.25436 | 23.98734 | 21634 ft | 315 kts | 257° |
| 2026-05-05 17:29 | 60.24998 | 23.94388 | 22316 ft | 318 kts | 257° |
| 2026-05-05 17:29 | 60.24553 | 23.89998 | 22979 ft | 322 kts | 257° |
| 2026-05-05 17:29 | 60.24103 | 23.85566 | 23607 ft | 325 kts | 257° |
| 2026-05-05 17:30 | 60.23646 | 23.81089 | 24151 ft | 328 kts | 257° |
| 2026-05-05 17:30 | 60.23185 | 23.76579 | 24696 ft | 331 kts | 257° |
| 2026-05-05 17:30 | 60.22724 | 23.72089 | 25193 ft | 334 kts | 257° |
| 2026-05-05 17:30 | 60.22250 | 23.67496 | 25717 ft | 337 kts | 256° |
| 2026-05-05 17:31 | 60.21771 | 23.62866 | 26214 ft | 340 kts | 256° |
| 2026-05-05 17:31 | 60.21286 | 23.58196 | 26723 ft | 343 kts | 256° |
| 2026-05-05 17:31 | 60.20795 | 23.53490 | 27195 ft | 345 kts | 256° |
| 2026-05-05 17:31 | 60.20298 | 23.48741 | 27657 ft | 348 kts | 256° |
| 2026-05-05 17:32 | 60.19796 | 23.43958 | 28122 ft | 351 kts | 256° |
| 2026-05-05 17:32 | 60.19288 | 23.39140 | 28558 ft | 354 kts | 256° |
| 2026-05-05 17:32 | 60.18774 | 23.34279 | 28993 ft | 357 kts | 256° |
| 2026-05-05 17:32 | 60.18262 | 23.29453 | 29438 ft | 360 kts | 256° |
| 2026-05-05 17:33 | 60.17739 | 23.24546 | 29897 ft | 360 kts | 256° |
| 2026-05-05 17:33 | 60.17209 | 23.19594 | 30136 ft | 365 kts | 256° |
| 2026-05-05 17:33 | 60.16671 | 23.14592 | 30481 ft | 368 kts | 256° |
| 2026-05-05 17:33 | 60.16128 | 23.09556 | 30837 ft | 370 kts | 256° |
| 2026-05-05 17:34 | 60.15581 | 23.04501 | 31222 ft | 371 kts | 256° |
| 2026-05-05 17:34 | 60.15031 | 22.99436 | 31667 ft | 371 kts | 256° |
| 2026-05-05 17:34 | 60.14480 | 22.94379 | 32111 ft | 371 kts | 256° |
| 2026-05-05 17:34 | 60.13927 | 22.89325 | 32549 ft | 370 kts | 256° |
| 2026-05-05 17:35 | 60.13373 | 22.84284 | 32979 ft | 370 kts | 256° |
| 2026-05-05 17:35 | 60.12824 | 22.79308 | 33391 ft | 370 kts | 256° |
| 2026-05-05 17:35 | 60.12267 | 22.74275 | 33801 ft | 370 kts | 256° |
| 2026-05-05 17:35 | 60.11708 | 22.69243 | 34102 ft | 371 kts | 256° |
| 2026-05-05 17:36 | 60.11143 | 22.64184 | 34337 ft | 373 kts | 256° |
| 2026-05-05 17:36 | 60.10575 | 22.59106 | 34585 ft | 375 kts | 256° |
| 2026-05-05 17:36 | 60.10001 | 22.53996 | 34824 ft | 377 kts | 256° |
| 2026-05-05 17:36 | 60.09422 | 22.48863 | 35070 ft | 379 kts | 256° |
| 2026-05-05 17:37 | 60.08837 | 22.43699 | 35279 ft | 381 kts | 256° |
| 2026-05-05 17:37 | 60.08447 | 22.40263 | 35429 ft | 383 kts | 256° |
| 2026-05-05 17:37 | 60.07653 | 22.33294 | 35722 ft | 385 kts | 256° |
| 2026-05-05 17:37 | 60.07061 | 22.28129 | 35845 ft | 386 kts | 256° |
| 2026-05-05 17:38 | 60.06460 | 22.22895 | 35848 ft | 385 kts | 256° |